Time;durP1;ratioP1;P1;durP2;ratioP2;P2;SDS_P1;SDS_P2;PMS_P1;PMS_P2;Temp;Humidity;BMP_temperature;BMP_pressure;BME280_temperature;BME280_humidity;BME280_pressure;Samples;Min_cycle;Max_cycle;Signal;HPM_P1;HPM_P2
2021/12/23 00:01:19;;;;;;;43.88;23.00;;;;;;;-3.48;96.08;101559.28;5026530;28;20026;-86
2021/12/23 00:03:45;;;;;;;42.10;22.77;;;;;;;-3.51;96.22;101550.59;5026734;28;20517;-87
2021/12/23 00:06:10;;;;;;;38.25;21.52;;;;;;;-3.61;96.22;101522.63;5007053;28;20087;-86
2021/12/23 00:08:35;;;;;;;41.38;21.70;;;;;;;-3.58;96.49;101520.09;5009071;28;20030;-86
2021/12/23 00:11:00;;;;;;;40.50;22.13;;;;;;;-3.54;96.42;101524.50;5009939;28;20041;-86
2021/12/23 00:13:26;;;;;;;43.03;22.35;;;;;;;-3.55;96.03;101514.97;5024523;28;20041;-86
2021/12/23 00:23:44;;;;;;;38.47;20.88;;;;;;;-3.51;95.59;101490.75;5025901;28;20530;-87
2021/12/23 00:26:10;;;;;;;40.60;21.40;;;;;;;-3.51;95.71;101479.47;5070572;28;20122;-86
2021/12/23 00:28:35;;;;;;;41.22;21.10;;;;;;;-3.47;95.76;101488.16;5093014;28;20028;-87
2021/12/23 00:31:02;;;;;;;34.45;20.25;;;;;;;-3.49;95.87;101492.50;5089275;28;20141;-86
2021/12/23 00:33:29;;;;;;;36.72;20.40;;;;;;;-3.49;95.49;101482.94;5093076;28;20069;-86
2021/12/23 00:35:56;;;;;;;39.83;20.63;;;;;;;-3.56;95.52;101476.75;5097735;27;20024;-86
2021/12/23 00:38:36;;;;;;;38.63;21.10;;;;;;;-3.48;95.80;101481.22;5107585;28;20512;-86
2021/12/23 00:41:03;;;;;;;38.03;19.88;;;;;;;-3.56;95.66;101448.13;5107274;28;20123;-86
2021/12/23 00:43:30;;;;;;;37.92;20.88;;;;;;;-3.51;95.50;101448.22;5097286;28;20372;-86
2021/12/23 00:45:55;;;;;;;40.30;21.38;;;;;;;-3.46;95.20;101451.78;5098769;28;20084;-86
2021/12/23 00:48:21;;;;;;;38.08;21.38;;;;;;;-3.47;95.37;101456.94;5092152;28;20165;-85
2021/12/23 00:50:47;;;;;;;42.05;21.38;;;;;;;-3.48;95.08;101463.00;5107478;28;20042;-86
2021/12/23 00:53:17;;;;;;;41.40;21.45;;;;;;;-3.51;95.23;101456.91;5108861;28;20024;-85
2021/12/23 00:55:45;;;;;;;36.42;20.08;;;;;;;-3.55;95.70;101447.31;5106593;28;20024;-86
2021/12/23 00:58:10;;;;;;;42.75;22.00;;;;;;;-3.62;95.34;101434.16;5108544;28;20035;-86
2021/12/23 01:00:35;;;;;;;39.10;20.20;;;;;;;-3.57;95.08;101443.78;5108829;28;20037;-87
2021/12/23 01:03:03;;;;;;;39.28;21.50;;;;;;;-3.62;95.08;101415.94;5108288;28;20023;-87
2021/12/23 01:05:29;;;;;;;38.80;22.20;;;;;;;-3.53;95.32;101434.31;5106038;28;20028;-87
2021/12/23 01:07:54;;;;;;;40.13;21.17;;;;;;;-3.51;95.54;101443.91;5108645;28;20020;-87
2021/12/23 01:10:22;;;;;;;42.78;21.42;;;;;;;-3.50;95.30;101452.56;5106629;28;20353;-86
2021/12/23 01:12:52;;;;;;;41.65;21.38;;;;;;;-3.67;95.50;101438.41;5108153;28;20028;-87
2021/12/23 01:17:56;;;;;;;37.47;21.25;;;;;;;-3.56;95.44;101453.34;5094678;28;20048;-87
2021/12/23 01:20:29;;;;;;;39.45;21.30;;;;;;;-3.61;95.43;101448.91;5106733;28;20111;-87
2021/12/23 01:22:56;;;;;;;42.47;21.50;;;;;;;-3.54;95.34;101455.97;5106740;28;20076;-87
2021/12/23 01:25:22;;;;;;;39.83;21.35;;;;;;;-3.63;95.39;101443.69;5105089;28;20031;-87
2021/12/23 01:27:47;;;;;;;41.95;20.80;;;;;;;-3.60;95.45;101446.31;5088106;28;20473;-87
2021/12/23 01:30:14;;;;;;;36.33;21.25;;;;;;;-3.59;95.51;101448.09;5096008;28;20020;-87
2021/12/23 01:32:39;;;;;;;38.72;21.70;;;;;;;-3.58;95.73;101452.44;5108207;28;20073;-87
2021/12/23 01:35:05;;;;;;;36.92;21.08;;;;;;;-3.55;96.15;101452.50;5104491;28;20023;-87
2021/12/23 01:37:30;;;;;;;44.53;23.40;;;;;;;-3.59;95.96;101439.44;5098379;28;20035;-86
2021/12/23 01:39:56;;;;;;;36.80;22.15;;;;;;;-3.51;95.81;101451.72;5087937;28;20031;-87
2021/12/23 01:42:21;;;;;;;35.55;20.92;;;;;;;-3.50;96.14;101449.97;5088118;28;20085;-87
2021/12/23 01:44:46;;;;;;;38.75;19.73;;;;;;;-3.55;95.31;101417.81;5107763;28;20460;-87
2021/12/23 01:47:11;;;;;;;37.72;20.90;;;;;;;-3.45;95.55;101442.25;5106744;28;20042;-86
2021/12/23 01:49:37;;;;;;;38.65;21.08;;;;;;;-3.55;95.27;101408.28;5090216;28;20024;-86
2021/12/23 01:52:02;;;;;;;40.42;21.65;;;;;;;-3.41;95.50;101431.03;5087519;28;20400;-87
2021/12/23 01:54:27;;;;;;;41.72;22.48;;;;;;;-3.50;95.35;101400.53;5080439;28;20020;-87
2021/12/23 01:56:53;;;;;;;39.05;21.77;;;;;;;-3.38;95.44;101415.47;5088943;28;20283;-87
2021/12/23 01:59:18;;;;;;;40.88;22.17;;;;;;;-3.41;95.38;101399.78;5087698;28;20024;-87
2021/12/23 02:01:44;;;;;;;38.60;20.40;;;;;;;-3.34;94.73;101412.94;5096952;28;20402;-87
2021/12/23 02:04:10;;;;;;;39.53;21.63;;;;;;;-3.33;94.84;101398.19;5107918;28;20080;-87
2021/12/23 02:06:35;;;;;;;39.55;19.65;;;;;;;-3.33;94.50;101392.97;5106911;28;20182;-87
2021/12/23 02:09:00;;;;;;;38.10;20.45;;;;;;;-3.35;94.58;101392.06;5108003;28;20024;-87
2021/12/23 02:11:25;;;;;;;36.92;20.88;;;;;;;-3.39;94.41;101398.94;5108112;28;20102;-87
2021/12/23 02:13:51;;;;;;;39.53;20.92;;;;;;;-3.43;94.85;101384.13;5099468;28;20028;-87
2021/12/23 02:16:16;;;;;;;35.03;19.85;;;;;;;-3.40;94.78;101393.72;5088148;28;20115;-87
2021/12/23 02:18:41;;;;;;;41.90;21.60;;;;;;;-3.49;94.66;101372.78;5100639;28;20379;-87
2021/12/23 02:21:07;;;;;;;39.42;20.83;;;;;;;-3.55;94.77;101371.84;5098708;28;20504;-87
2021/12/23 02:23:33;;;;;;;38.30;20.20;;;;;;;-3.46;94.58;101381.50;5093402;28;20041;-87
2021/12/23 02:25:58;;;;;;;41.88;20.95;;;;;;;-3.52;94.79;101366.66;5100869;28;20840;-87
2021/12/23 02:28:25;;;;;;;37.53;19.83;;;;;;;-3.48;94.66;101375.41;5105982;28;20115;-87
2021/12/23 02:30:51;;;;;;;39.95;21.20;;;;;;;-3.57;94.37;101359.66;5107413;28;20154;-87
2021/12/23 02:33:18;;;;;;;36.95;20.30;;;;;;;-3.54;94.58;101375.31;5109422;28;20426;-87
2021/12/23 02:35:43;;;;;;;38.80;21.02;;;;;;;-3.56;94.46;101380.47;5109187;28;20485;-87
2021/12/23 02:38:08;;;;;;;36.83;21.90;;;;;;;-3.63;94.81;101372.56;5110859;28;20058;-87
2021/12/23 02:40:39;;;;;;;34.83;20.50;;;;;;;-3.63;94.95;101380.38;5111949;28;20016;-87
2021/12/23 02:43:13;;;;;;;40.17;20.95;;;;;;;-3.67;94.91;101371.66;5105516;28;20023;-87
2021/12/23 02:45:39;;;;;;;38.55;20.35;;;;;;;-3.73;95.01;101376.75;5103335;28;20044;-87
2021/12/23 02:48:09;;;;;;;39.38;20.70;;;;;;;-3.77;95.45;101374.94;5090871;28;20047;-87
2021/12/23 02:50:35;;;;;;;37.28;21.50;;;;;;;-3.83;95.36;101373.13;5091721;28;20349;-87
2021/12/23 02:53:00;;;;;;;36.10;20.10;;;;;;;-3.91;95.60;101363.44;5089622;28;20024;-87
2021/12/23 02:55:25;;;;;;;37.80;20.15;;;;;;;-4.07;95.52;101355.38;5103175;28;20702;-87
2021/12/23 02:57:50;;;;;;;41.42;20.77;;;;;;;-4.06;95.51;101367.53;5110174;28;20024;-87
2021/12/23 03:00:16;;;;;;;40.00;21.05;;;;;;;-4.22;95.42;101347.34;5110041;28;20030;-87
2021/12/23 03:02:41;;;;;;;36.63;20.52;;;;;;;-4.21;95.78;101350.81;5111531;28;20019;-87
2021/12/23 03:05:07;;;;;;;40.90;21.20;;;;;;;-4.26;96.29;101343.81;5108304;28;20036;-87
2021/12/23 03:07:33;;;;;;;43.00;22.88;;;;;;;-4.22;96.39;101343.84;5109741;28;20027;-86
2021/12/23 03:09:59;;;;;;;39.47;22.27;;;;;;;-4.16;96.33;101349.16;5109389;28;20409;-87
2021/12/23 03:12:24;;;;;;;41.85;23.05;;;;;;;-4.09;96.23;101356.22;5111280;28;20023;-87
2021/12/23 03:14:49;;;;;;;43.72;22.58;;;;;;;-4.05;96.37;101345.91;5108783;28;20020;-87
2021/12/23 03:17:15;;;;;;;40.65;21.92;;;;;;;-4.02;96.03;101335.53;5091352;28;20028;-87
2021/12/23 03:19:40;;;;;;;42.45;21.10;;;;;;;-3.98;96.28;101340.78;5098143;28;20020;-87
2021/12/23 03:22:05;;;;;;;42.65;20.95;;;;;;;-3.98;95.98;101331.25;5110706;28;20382;-86
2021/12/23 03:24:31;;;;;;;43.13;22.17;;;;;;;-3.94;96.07;101334.78;5106358;28;20519;-86
2021/12/23 03:26:56;;;;;;;40.55;21.30;;;;;;;-3.98;95.96;101320.00;5108930;28;20032;-85
2021/12/23 03:29:21;;;;;;;49.42;25.08;;;;;;;-3.93;96.10;101339.13;5107830;28;20066;-86
2021/12/23 03:31:47;;;;;;;49.10;25.35;;;;;;;-3.93;95.64;101318.31;5102565;28;20469;-86
2021/12/23 03:34:12;;;;;;;56.75;27.73;;;;;;;-3.94;96.32;101327.84;5110731;28;20472;-86
2021/12/23 03:36:37;;;;;;;52.58;27.08;;;;;;;-4.03;95.97;101310.38;5103048;28;20027;-86
2021/12/23 03:39:04;;;;;;;54.03;26.58;;;;;;;-4.10;96.22;101303.31;5108570;28;20027;-86
2021/12/23 03:41:30;;;;;;;49.17;26.00;;;;;;;-4.11;96.17;101301.59;5094621;28;20059;-86
2021/12/23 03:43:55;;;;;;;46.88;26.15;;;;;;;-4.08;96.32;101306.84;5103191;28;20130;-87
2021/12/23 03:46:20;;;;;;;47.47;24.83;;;;;;;-4.08;96.66;101296.44;5104392;28;20323;-87
2021/12/23 03:48:46;;;;;;;44.65;25.25;;;;;;;-4.07;96.25;101276.50;5100182;28;20081;-87
2021/12/23 03:51:11;;;;;;;42.95;25.70;;;;;;;-4.05;96.60;101273.09;5109776;28;20257;-86
2021/12/23 03:53:36;;;;;;;40.47;22.48;;;;;;;-4.01;96.55;101280.09;5104214;28;20027;-87
2021/12/23 03:56:02;;;;;;;43.90;23.00;;;;;;;-4.02;96.41;101267.94;5103375;28;20159;-87
2021/12/23 03:58:27;;;;;;;40.08;21.75;;;;;;;-3.99;96.53;101255.84;5097940;28;20031;-87
2021/12/23 04:00:53;;;;;;;43.53;21.75;;;;;;;-3.91;96.69;101254.22;5110021;28;20024;-87
2021/12/23 04:03:19;;;;;;;42.20;22.33;;;;;;;-3.92;96.43;101244.69;5109924;28;20038;-87
2021/12/23 04:05:44;;;;;;;40.88;21.85;;;;;;;-3.93;96.22;101232.50;5105312;28;20466;-86
2021/12/23 04:08:10;;;;;;;39.92;21.15;;;;;;;-3.93;96.22;101238.63;5087703;28;20390;-87
2021/12/23 04:10:35;;;;;;;42.08;21.77;;;;;;;-3.85;96.26;101242.16;5096133;28;20359;-87
2021/12/23 04:13:01;;;;;;;43.67;22.42;;;;;;;-3.89;96.21;101224.78;5109414;28;20099;-86
2021/12/23 04:15:27;;;;;;;43.20;22.30;;;;;;;-3.82;96.24;101255.22;5103900;28;20518;-87
2021/12/23 04:17:52;;;;;;;40.15;21.60;;;;;;;-3.87;96.37;101238.69;5099940;28;20019;-87
2021/12/23 04:20:21;;;;;;;42.47;22.52;;;;;;;-3.77;96.28;101245.75;5109166;28;20020;-87
2021/12/23 04:22:50;;;;;;;40.78;22.70;;;;;;;-3.73;96.23;101235.41;5109716;28;20107;-87
2021/12/23 04:25:17;;;;;;;41.22;22.60;;;;;;;-3.69;96.13;101225.06;5103417;28;20106;-87
2021/12/23 04:27:46;;;;;;;45.28;23.10;;;;;;;-3.78;96.06;101201.53;5088783;28;20036;-87
2021/12/23 04:30:12;;;;;;;44.20;23.30;;;;;;;-3.68;96.27;101203.38;5088854;28;20096;-87
2021/12/23 04:32:38;;;;;;;45.92;23.85;;;;;;;-3.66;96.14;101206.91;5089395;28;20024;-86
2021/12/23 04:35:04;;;;;;;43.33;23.08;;;;;;;-3.68;95.86;101208.59;5091825;28;20019;-87
2021/12/23 04:37:29;;;;;;;42.88;24.27;;;;;;;-3.67;96.05;101228.56;5109418;28;20485;-86
2021/12/23 04:39:54;;;;;;;40.28;22.85;;;;;;;-3.62;95.61;101246.84;5107982;28;20491;-87
2021/12/23 04:42:20;;;;;;;44.22;23.52;;;;;;;-3.64;95.60;101241.59;5107499;28;20028;-87
2021/12/23 04:44:45;;;;;;;44.40;23.35;;;;;;;-3.78;95.61;101220.59;5105519;28;20128;-87
2021/12/23 04:47:11;;;;;;;40.13;22.00;;;;;;;-3.71;95.65;101218.09;5103650;28;20020;-86
2021/12/23 04:49:36;;;;;;;40.63;23.30;;;;;;;-3.72;96.15;101200.72;5104550;28;20059;-86
2021/12/23 04:52:01;;;;;;;39.75;22.38;;;;;;;-3.76;96.41;101198.09;5106004;28;20373;-86
2021/12/23 04:54:27;;;;;;;48.20;24.13;;;;;;;-3.70;96.05;101207.72;5100433;28;20044;-87
2021/12/23 04:56:52;;;;;;;45.45;24.83;;;;;;;-3.68;96.14;101198.19;5107238;28;20019;-86
2021/12/23 04:59:18;;;;;;;48.78;25.48;;;;;;;-3.75;96.25;101165.16;5103337;28;20028;-87
2021/12/23 05:01:43;;;;;;;48.83;25.35;;;;;;;-3.62;96.32;101182.66;5096345;28;20045;-87
2021/12/23 05:04:10;;;;;;;52.10;26.55;;;;;;;-3.62;96.14;101172.25;5096967;28;20032;-86
2021/12/23 05:06:35;;;;;;;46.47;26.73;;;;;;;-3.57;95.93;101174.91;5100569;28;20028;-87
2021/12/23 05:09:01;;;;;;;51.03;26.83;;;;;;;-3.56;96.25;101161.03;5107817;28;20024;-87
2021/12/23 05:11:26;;;;;;;47.30;25.30;;;;;;;-3.53;96.01;101167.16;5108502;28;20041;-87
2021/12/23 05:13:51;;;;;;;45.63;25.48;;;;;;;-3.52;96.02;101161.09;5108588;28;20038;-87
2021/12/23 05:16:18;;;;;;;48.15;26.63;;;;;;;-3.47;95.63;101160.28;5105172;28;20492;-86
2021/12/23 05:18:44;;;;;;;48.63;25.88;;;;;;;-3.44;95.80;101165.53;5109254;28;20028;-87
2021/12/23 05:21:09;;;;;;;49.97;25.67;;;;;;;-3.42;95.70;101166.44;5108341;28;20034;-87
2021/12/23 05:23:35;;;;;;;46.95;26.95;;;;;;;-3.41;95.62;101163.81;5090341;28;20107;-87
2021/12/23 05:26:00;;;;;;;48.38;24.45;;;;;;;-3.42;95.41;101156.03;5105768;28;20054;-86
2021/12/23 05:28:26;;;;;;;47.22;23.98;;;;;;;-3.38;95.20;101160.41;5108451;28;20110;-86
2021/12/23 05:30:51;;;;;;;46.10;24.13;;;;;;;-3.35;95.15;101156.06;5108303;28;20019;-87
2021/12/23 05:33:17;;;;;;;39.13;22.13;;;;;;;-3.34;95.25;101138.75;5108073;28;20425;-87
2021/12/23 05:35:42;;;;;;;46.47;24.85;;;;;;;-3.33;95.49;101154.38;5086912;28;20107;-86
2021/12/23 05:38:08;;;;;;;47.85;23.55;;;;;;;-3.36;95.09;101146.53;5086351;28;20024;-86
2021/12/23 05:40:35;;;;;;;46.22;24.27;;;;;;;-3.36;95.26;101143.91;5087788;28;20020;-86
2021/12/23 05:43:00;;;;;;;46.47;24.30;;;;;;;-3.35;95.45;101142.19;5087990;28;20024;-87
2021/12/23 05:45:26;;;;;;;42.92;23.65;;;;;;;-3.38;95.47;101130.03;5088932;28;20092;-87
2021/12/23 05:47:52;;;;;;;45.92;24.30;;;;;;;-3.27;95.34;101149.22;5086561;28;20028;-86
2021/12/23 05:50:19;;;;;;;46.58;24.13;;;;;;;-3.28;95.31;101141.41;5087655;28;20481;-86
2021/12/23 05:52:45;;;;;;;45.97;23.50;;;;;;;-3.24;95.22;101148.38;5087992;28;20024;-87
2021/12/23 05:55:12;;;;;;;41.45;22.65;;;;;;;-3.23;95.11;101146.66;5088193;28;20024;-87
2021/12/23 05:57:39;;;;;;;47.90;24.50;;;;;;;-3.30;95.35;101125.78;5087872;28;20412;-87
2021/12/23 06:00:10;;;;;;;46.15;24.00;;;;;;;-3.21;94.92;101132.81;5095830;28;20059;-87
2021/12/23 06:02:35;;;;;;;47.65;25.05;;;;;;;-3.27;95.07;101111.91;5107121;28;20066;-87
2021/12/23 06:05:00;;;;;;;47.38;26.63;;;;;;;-3.22;95.08;101120.63;5105738;28;20052;-86
2021/12/23 06:07:26;;;;;;;46.63;25.52;;;;;;;-3.19;95.00;101119.78;5112224;28;20035;-87
2021/12/23 06:09:51;;;;;;;47.33;25.27;;;;;;;-3.18;95.03;101121.53;5112329;28;20032;-87
2021/12/23 06:12:17;;;;;;;49.20;25.13;;;;;;;-3.20;95.10;101139.75;5092558;28;20405;-87
2021/12/23 06:14:42;;;;;;;45.08;24.23;;;;;;;-3.18;95.06;101158.84;5094053;28;20027;-86
2021/12/23 06:17:07;;;;;;;42.65;23.08;;;;;;;-3.19;94.94;101156.25;5109815;28;20102;-87
2021/12/23 06:19:32;;;;;;;48.08;24.08;;;;;;;-3.22;94.82;101151.88;5108963;28;20023;-87
2021/12/23 06:21:58;;;;;;;54.70;25.05;;;;;;;-3.23;94.94;101134.50;5098540;28;20571;-87
2021/12/23 06:24:23;;;;;;;50.38;24.75;;;;;;;-3.25;95.11;101131.03;5107441;28;20020;-87
2021/12/23 06:26:48;;;;;;;52.33;26.05;;;;;;;-3.28;94.84;101131.88;5104993;28;20050;-87
2021/12/23 06:29:14;;;;;;;49.08;24.52;;;;;;;-3.38;94.80;101106.63;5105261;28;20024;-87
2021/12/23 06:31:39;;;;;;;48.10;24.25;;;;;;;-3.34;95.12;101110.13;5092845;28;20418;-87
2021/12/23 06:34:05;;;;;;;45.55;23.63;;;;;;;-3.31;95.11;101105.78;5111066;28;20039;-87
2021/12/23 06:36:30;;;;;;;45.10;22.83;;;;;;;-3.30;95.14;101101.50;5103935;28;20030;-87
2021/12/23 06:38:56;;;;;;;46.17;24.40;;;;;;;-3.31;95.37;101110.13;5106894;28;20024;-87
2021/12/23 06:41:21;;;;;;;51.85;25.67;;;;;;;-3.30;95.37;101097.16;5104873;28;20059;-86
2021/12/23 06:43:46;;;;;;;52.78;24.92;;;;;;;-3.31;95.45;101094.50;5110843;28;20032;-87
2021/12/23 06:46:12;;;;;;;49.38;24.52;;;;;;;-3.31;95.16;101089.31;5108051;28;20468;-87
2021/12/23 06:48:37;;;;;;;46.53;24.48;;;;;;;-3.27;95.54;101093.69;5110701;28;20031;-86
2021/12/23 06:51:03;;;;;;;47.83;24.38;;;;;;;-3.31;95.43;101097.97;5110724;28;20043;-87
2021/12/23 06:53:28;;;;;;;46.95;24.52;;;;;;;-3.30;95.76;101089.34;5111196;28;20023;-86
2021/12/23 06:55:55;;;;;;;41.88;22.50;;;;;;;-3.32;95.20;101091.03;5100731;28;20032;-86
2021/12/23 06:58:23;;;;;;;49.45;25.02;;;;;;;-3.35;95.33;101082.31;5104560;28;20023;-87
2021/12/23 07:00:48;;;;;;;49.03;23.95;;;;;;;-3.21;95.02;101103.31;5109196;28;20019;-87
2021/12/23 07:03:13;;;;;;;45.10;23.30;;;;;;;-3.23;95.11;101087.66;5103144;28;20540;-86
2021/12/23 07:05:38;;;;;;;42.95;23.67;;;;;;;-3.19;94.93;101084.22;5108199;28;20037;-86
2021/12/23 07:10:31;;;;;;;47.03;23.40;;;;;;;-3.11;95.14;101086.91;5110855;28;20533;-86
2021/12/23 07:12:57;;;;;;;44.33;24.20;;;;;;;-3.03;95.19;101098.25;5110233;28;20424;-87
2021/12/23 07:15:24;;;;;;;46.95;23.30;;;;;;;-3.01;94.82;101097.41;5102878;28;20054;-86
2021/12/23 07:17:51;;;;;;;47.40;24.27;;;;;;;-2.99;94.92;101096.56;5110164;28;20024;-85
2021/12/23 07:20:17;;;;;;;46.20;23.38;;;;;;;-3.01;95.15;101092.22;5109428;28;20130;-86
2021/12/23 07:22:42;;;;;;;47.03;25.05;;;;;;;-2.94;95.17;101089.66;5110380;28;20111;-85
2021/12/23 07:25:08;;;;;;;44.22;24.05;;;;;;;-3.01;95.02;101079.19;5104185;28;20465;-86
2021/12/23 07:27:33;;;;;;;47.67;25.05;;;;;;;-2.96;95.09;101065.34;5108682;28;20020;-86
2021/12/23 07:29:58;;;;;;;46.63;23.98;;;;;;;-2.90;95.18;101081.00;5101165;28;20031;-86
2021/12/23 07:32:24;;;;;;;53.30;24.40;;;;;;;-2.88;95.21;101080.16;5109929;28;20412;-86
2021/12/23 07:34:49;;;;;;;48.78;25.25;;;;;;;-2.87;94.98;101084.50;5102085;28;20432;-87
2021/12/23 07:37:15;;;;;;;47.65;24.02;;;;;;;-2.91;94.72;101061.03;5110160;28;20101;-87
2021/12/23 07:39:40;;;;;;;49.30;24.65;;;;;;;-2.82;95.02;101092.34;5107052;28;20027;-87
2021/12/23 07:42:07;;;;;;;48.97;25.83;;;;;;;-2.82;95.39;101087.13;5091737;28;20042;-87
2021/12/23 07:44:33;;;;;;;49.05;23.45;;;;;;;-2.78;94.79;101094.13;5104262;28;20408;-87
2021/12/23 07:46:59;;;;;;;48.53;23.85;;;;;;;-2.77;95.12;101094.13;5110332;27;20376;-87
2021/12/23 07:49:24;;;;;;;49.03;24.95;;;;;;;-2.76;95.16;101092.38;5099994;28;20099;-87
2021/12/23 07:51:50;;;;;;;49.80;26.05;;;;;;;-2.71;95.17;101087.22;5089992;28;20031;-86
2021/12/23 07:54:15;;;;;;;50.22;23.80;;;;;;;-2.71;95.08;101088.09;5093405;28;20415;-87
2021/12/23 07:56:40;;;;;;;48.22;24.75;;;;;;;-2.67;94.60;101092.47;5103652;28;20106;-88
2021/12/23 07:59:05;;;;;;;50.47;25.00;;;;;;;-2.66;94.55;101086.38;5109922;28;20034;-87
2021/12/23 08:01:31;;;;;;;45.40;24.13;;;;;;;-2.68;94.97;101095.91;5094240;28;20032;-87
2021/12/23 08:03:56;;;;;;;51.70;25.55;;;;;;;-2.64;95.64;101089.00;5102716;28;20031;-86
2021/12/23 08:06:21;;;;;;;50.15;25.55;;;;;;;-2.61;94.60;101084.69;5105808;28;20060;-86
2021/12/23 08:08:46;;;;;;;49.17;24.30;;;;;;;-2.59;94.82;101072.56;5107090;28;20501;-87
2021/12/23 08:11:12;;;;;;;54.38;25.38;;;;;;;-2.60;95.06;101065.56;5106084;28;20027;-87
2021/12/23 08:13:37;;;;;;;47.47;23.55;;;;;;;-2.74;94.75;101035.09;5105295;28;20037;-87
2021/12/23 08:16:04;;;;;;;51.85;25.13;;;;;;;-2.61;94.66;101053.41;5095194;28;20046;-86
2021/12/23 08:18:31;;;;;;;49.55;24.85;;;;;;;-2.52;94.38;101063.88;5100275;28;20066;-89
2021/12/23 08:20:57;;;;;;;48.95;25.45;;;;;;;-2.48;94.37;101069.13;5088824;28;20127;-88
2021/12/23 08:23:23;;;;;;;48.20;25.10;;;;;;;-2.50;94.43;101061.31;5105923;28;20038;-88
2021/12/23 08:25:49;;;;;;;51.38;25.67;;;;;;;-2.44;94.32;101065.69;5092451;28;20019;-85
2021/12/23 08:28:15;;;;;;;53.13;26.60;;;;;;;-2.47;94.53;101056.09;5108879;28;20107;-86
2021/12/23 08:30:41;;;;;;;47.97;24.40;;;;;;;-2.45;94.78;101064.81;5109750;28;20503;-87
2021/12/23 08:33:08;;;;;;;54.40;25.50;;;;;;;-2.38;94.46;101065.69;5104420;28;20035;-87
2021/12/23 08:35:33;;;;;;;48.47;23.88;;;;;;;-2.35;94.46;101050.94;5096978;28;20106;-87
2021/12/23 08:37:59;;;;;;;51.67;25.75;;;;;;;-2.31;94.62;101044.00;5099867;28;20422;-88
2021/12/23 08:40:27;;;;;;;48.88;25.20;;;;;;;-2.28;94.50;101049.25;5103054;27;20745;-87
2021/12/23 08:42:53;;;;;;;47.03;24.13;;;;;;;-2.29;94.36;101035.34;5096690;28;20028;-87
2021/12/23 08:45:20;;;;;;;48.45;24.88;;;;;;;-2.19;94.18;101044.06;5098341;28;20496;-87
2021/12/23 08:47:45;;;;;;;54.70;27.02;;;;;;;-2.16;93.74;101031.06;5098704;28;20125;-87
2021/12/23 08:50:14;;;;;;;50.17;25.00;;;;;;;-2.09;93.61;101026.72;5097658;28;20429;-87
2021/12/23 08:52:39;;;;;;;50.88;24.20;;;;;;;-2.15;93.03;101017.16;5105986;28;20039;-87
2021/12/23 08:55:07;;;;;;;51.47;25.95;;;;;;;-2.06;93.30;101016.31;5101842;28;20080;-87
2021/12/23 08:57:32;;;;;;;53.00;25.30;;;;;;;-1.92;92.91;101024.16;5105230;28;20035;-87
2021/12/23 08:59:58;;;;;;;47.33;25.15;;;;;;;-1.80;93.02;101029.41;5093473;28;20693;-87
2021/12/23 09:02:23;;;;;;;49.97;25.23;;;;;;;-1.73;92.80;101018.13;5102675;28;20034;-86
2021/12/23 09:04:48;;;;;;;51.85;26.20;;;;;;;-1.70;92.99;101025.97;5102191;28;20473;-86
2021/12/23 09:07:14;;;;;;;48.92;25.33;;;;;;;-1.70;92.51;101014.69;5103458;28;20027;-87
2021/12/23 09:09:40;;;;;;;45.63;23.70;;;;;;;-1.78;92.93;101004.22;5101144;28;20032;-87
2021/12/23 09:12:07;;;;;;;47.40;24.98;;;;;;;-1.70;92.38;101020.75;5104124;28;20528;-91
2021/12/23 09:14:34;;;;;;;52.10;25.77;;;;;;;-1.70;92.99;101012.06;5097796;28;20465;-85
2021/12/23 09:17:00;;;;;;;48.28;25.20;;;;;;;-1.57;92.61;101011.22;5095886;28;20035;-85
2021/12/23 09:19:26;;;;;;;50.22;25.55;;;;;;;-1.42;92.31;101010.34;5084506;28;20032;-86
2021/12/23 09:21:52;;;;;;;54.90;26.70;;;;;;;-1.24;92.09;101017.34;5102121;28;20438;-85
2021/12/23 09:24:19;;;;;;;54.28;24.80;;;;;;;-1.08;91.33;101008.63;5091478;28;20118;-86
2021/12/23 09:26:57;;;;;;;48.50;25.15;;;;;;;-0.96;90.94;101010.34;5097477;28;20552;-86
2021/12/23 09:34:51;;;;;;;47.47;23.80;;;;;;;-0.91;90.77;101000.78;5095122;28;20018;-85
2021/12/23 09:37:17;;;;;;;47.92;24.10;;;;;;;-0.91;90.39;100996.41;5104240;28;20063;-87
2021/12/23 09:39:44;;;;;;;47.53;24.40;;;;;;;-0.78;90.12;100999.88;5104028;28;20488;-88
2021/12/23 09:42:12;;;;;;;52.17;24.65;;;;;;;-0.75;89.68;101010.34;5098069;28;20111;-87
2021/12/23 09:44:37;;;;;;;49.63;23.77;;;;;;;-0.74;89.62;101000.75;5085095;28;20067;-87
2021/12/23 09:47:03;;;;;;;51.22;24.23;;;;;;;-0.78;89.25;101005.09;5081359;28;20035;-87
2021/12/23 09:49:30;;;;;;;46.92;24.88;;;;;;;-0.88;89.25;100987.69;5096002;28;20027;-87
2021/12/23 09:51:57;;;;;;;50.90;25.05;;;;;;;-0.84;89.93;100992.03;5092625;28;20020;-85
2021/12/23 09:54:25;;;;;;;48.00;25.90;;;;;;;-0.79;89.75;100985.94;5094515;28;20038;-86
2021/12/23 09:56:52;;;;;;;52.55;26.08;;;;;;;-0.73;89.71;100981.56;5100181;28;20396;-85
2021/12/23 09:59:20;;;;;;;53.05;26.25;;;;;;;-0.71;89.94;100982.41;5091193;28;20023;-86
2021/12/23 10:01:45;;;;;;;50.65;26.15;;;;;;;-0.74;89.97;100969.38;5094514;28;20195;-87
2021/12/23 10:04:11;;;;;;;51.97;25.15;;;;;;;-0.68;89.90;100979.81;5082444;28;20384;-86
2021/12/23 10:06:36;;;;;;;53.88;25.85;;;;;;;-0.69;89.96;100959.78;5096436;28;20040;-89
2021/12/23 10:09:03;;;;;;;47.53;25.52;;;;;;;-0.70;89.84;100969.38;5097165;28;20058;-87
2021/12/23 10:30:28;;;;;;;56.78;25.50;;;;;;;-0.62;90.16;100954.53;5100847;28;20039;-88
2021/12/23 10:38:18;;;;;;;46.25;23.60;;;;;;;-0.44;90.64;100923.97;5103393;28;20046;-87
2021/12/23 10:40:47;;;;;;;54.97;25.42;;;;;;;-0.43;90.81;100923.94;5101433;28;20027;-87
2021/12/23 10:43:32;;;;;;;51.60;26.27;;;;;;;-0.34;90.39;100907.31;5102769;28;20081;-87
2021/12/23 10:46:08;;;;;;;51.75;24.48;;;;;;;-0.32;90.68;100905.59;5101068;28;20047;-87
2021/12/23 10:48:44;;;;;;;54.78;25.33;;;;;;;-0.27;90.80;100880.28;5104199;28;20459;-88
2021/12/23 10:51:15;;;;;;;51.53;24.20;;;;;;;-0.16;90.77;100877.59;5085502;28;20028;-87
2021/12/23 10:59:14;;;;;;;52.65;24.45;;;;;;;0.22;90.12;100859.00;5102310;28;20039;-87
2021/12/23 11:02:29;;;;;;;49.60;25.33;;;;;;;0.32;90.23;100865.88;5107015;28;20063;-86
2021/12/23 11:05:19;;;;;;;47.67;23.27;;;;;;;0.38;89.48;100858.00;5106446;28;20484;-85
2021/12/23 11:07:57;;;;;;;51.72;23.23;;;;;;;0.37;89.28;100850.13;5100388;28;20423;-86
2021/12/23 11:10:53;;;;;;;45.47;23.02;;;;;;;0.43;88.84;100850.97;5087574;28;20043;-86
2021/12/23 11:35:48;;;;;;;40.72;19.95;;;;;;;1.75;85.83;100812.63;5098641;28;20050;-86
2021/12/23 11:39:06;;;;;;;41.00;20.48;;;;;;;1.83;84.79;100802.88;5086365;28;20042;-87
2021/12/23 11:41:20;;;;;;;43.50;21.40;;;;;;;1.82;84.91;100788.03;5094344;28;20552;-84
2021/12/23 11:43:51;;;;;;;42.60;21.17;;;;;;;1.85;84.62;100780.13;5104654;28;20315;-86
2021/12/23 11:46:30;;;;;;;43.25;19.95;;;;;;;1.84;85.43;100780.13;5105885;28;20443;-86
2021/12/23 11:48:57;;;;;;;42.58;21.25;;;;;;;1.78;84.64;100781.09;5094043;28;20112;-86
2021/12/23 11:51:51;;;;;;;41.97;20.45;;;;;;;1.74;85.61;100769.78;5090071;28;20430;-89
2021/12/23 11:54:20;;;;;;;40.55;20.55;;;;;;;1.81;84.99;100777.59;5091522;28;20035;-88
2021/12/23 11:56:50;;;;;;;42.60;20.27;;;;;;;1.81;85.12;100762.69;5104109;28;20059;-88
2021/12/23 11:59:17;;;;;;;42.63;21.52;;;;;;;1.96;84.82;100749.31;5100731;28;20027;-87
2021/12/23 12:01:46;;;;;;;40.42;21.15;;;;;;;2.20;84.41;100762.91;5095143;28;20484;-88
2021/12/23 12:04:21;;;;;;;38.28;20.90;;;;;;;2.38;83.80;100754.72;5101062;28;20373;-87
2021/12/23 12:06:48;;;;;;;42.90;20.88;;;;;;;2.39;83.30;100737.19;5091090;28;20456;-87
2021/12/23 12:09:22;;;;;;;40.80;21.23;;;;;;;2.53;83.37;100742.16;5099136;28;20032;-87
2021/12/23 12:12:00;;;;;;;44.25;21.27;;;;;;;2.57;83.42;100752.59;5104195;28;20480;-88
2021/12/23 12:14:40;;;;;;;39.65;19.90;;;;;;;2.58;83.27;100749.06;5101039;28;20039;-88
2021/12/23 12:17:23;;;;;;;39.78;20.15;;;;;;;2.63;83.59;100754.22;5093299;28;20098;-87
2021/12/23 12:19:56;;;;;;;40.78;21.02;;;;;;;2.45;82.80;100727.41;5106601;28;20036;-87